sensor_id;sensor_type;location;lat;lon;timestamp;P1;durP1;ratioP1;P2;durP2;ratioP2
70337;SDS011;57757;53.198;19.646;2024-01-11T00:00:46;36.30;;;13.30;;
70337;SDS011;57757;53.198;19.646;2024-01-11T00:03:34;33.70;;;10.30;;
70337;SDS011;57757;53.198;19.646;2024-01-11T00:06:01;37.90;;;12.00;;
70337;SDS011;57757;53.198;19.646;2024-01-11T00:08:31;30.30;;;9.40;;
70337;SDS011;57757;53.198;19.646;2024-01-11T00:10:59;35.40;;;11.50;;
70337;SDS011;57757;53.198;19.646;2024-01-11T00:13:26;28.90;;;10.00;;
70337;SDS011;57757;53.198;19.646;2024-01-11T00:15:54;37.90;;;11.30;;
70337;SDS011;57757;53.198;19.646;2024-01-11T00:18:21;38.10;;;12.20;;
70337;SDS011;57757;53.198;19.646;2024-01-11T00:20:49;30.50;;;9.40;;
70337;SDS011;57757;53.198;19.646;2024-01-11T00:23:16;29.80;;;9.30;;
70337;SDS011;57757;53.198;19.646;2024-01-11T00:25:44;40.90;;;11.00;;
70337;SDS011;57757;53.198;19.646;2024-01-11T00:28:12;31.50;;;10.50;;
70337;SDS011;57757;53.198;19.646;2024-01-11T00:30:39;53.40;;;18.80;;
70337;SDS011;57757;53.198;19.646;2024-01-11T00:33:07;40.60;;;10.90;;
70337;SDS011;57757;53.198;19.646;2024-01-11T00:35:34;27.60;;;9.80;;
70337;SDS011;57757;53.198;19.646;2024-01-11T00:38:02;32.20;;;9.30;;
70337;SDS011;57757;53.198;19.646;2024-01-11T00:40:30;31.60;;;9.20;;
70337;SDS011;57757;53.198;19.646;2024-01-11T00:42:57;30.60;;;9.30;;
70337;SDS011;57757;53.198;19.646;2024-01-11T00:45:25;26.30;;;8.90;;
70337;SDS011;57757;53.198;19.646;2024-01-11T00:47:52;33.00;;;10.40;;
70337;SDS011;57757;53.198;19.646;2024-01-11T00:50:20;30.20;;;10.90;;
70337;SDS011;57757;53.198;19.646;2024-01-11T00:52:47;32.70;;;10.20;;
70337;SDS011;57757;53.198;19.646;2024-01-11T00:55:15;33.30;;;10.80;;
70337;SDS011;57757;53.198;19.646;2024-01-11T00:57:43;36.40;;;12.50;;
70337;SDS011;57757;53.198;19.646;2024-01-11T01:00:11;33.60;;;11.10;;
70337;SDS011;57757;53.198;19.646;2024-01-11T01:02:42;33.40;;;11.00;;
70337;SDS011;57757;53.198;19.646;2024-01-11T01:05:10;30.70;;;9.30;;
70337;SDS011;57757;53.198;19.646;2024-01-11T01:07:37;42.50;;;14.30;;
70337;SDS011;57757;53.198;19.646;2024-01-11T01:10:05;34.60;;;11.60;;
70337;SDS011;57757;53.198;19.646;2024-01-11T01:12:33;37.20;;;10.60;;
70337;SDS011;57757;53.198;19.646;2024-01-11T01:15:00;30.50;;;9.50;;
70337;SDS011;57757;53.198;19.646;2024-01-11T01:17:28;37.60;;;11.80;;
70337;SDS011;57757;53.198;19.646;2024-01-11T01:19:56;43.30;;;10.80;;
70337;SDS011;57757;53.198;19.646;2024-01-11T01:22:24;29.50;;;9.80;;
70337;SDS011;57757;53.198;19.646;2024-01-11T01:24:52;35.10;;;13.00;;
70337;SDS011;57757;53.198;19.646;2024-01-11T01:27:20;34.80;;;10.70;;
70337;SDS011;57757;53.198;19.646;2024-01-11T01:29:47;33.90;;;10.80;;
70337;SDS011;57757;53.198;19.646;2024-01-11T01:32:15;33.40;;;10.70;;
70337;SDS011;57757;53.198;19.646;2024-01-11T01:34:42;33.60;;;10.60;;
70337;SDS011;57757;53.198;19.646;2024-01-11T01:37:12;39.50;;;12.00;;
70337;SDS011;57757;53.198;19.646;2024-01-11T01:39:41;38.70;;;12.50;;
70337;SDS011;57757;53.198;19.646;2024-01-11T01:42:09;36.50;;;11.70;;
70337;SDS011;57757;53.198;19.646;2024-01-11T01:44:37;39.20;;;11.10;;
70337;SDS011;57757;53.198;19.646;2024-01-11T01:47:08;33.70;;;9.90;;
70337;SDS011;57757;53.198;19.646;2024-01-11T01:49:39;34.50;;;10.90;;
70337;SDS011;57757;53.198;19.646;2024-01-11T01:52:07;35.60;;;10.20;;
70337;SDS011;57757;53.198;19.646;2024-01-11T01:54:35;34.60;;;9.80;;
70337;SDS011;57757;53.198;19.646;2024-01-11T01:57:03;31.70;;;8.90;;
70337;SDS011;57757;53.198;19.646;2024-01-11T01:59:31;47.90;;;11.60;;
70337;SDS011;57757;53.198;19.646;2024-01-11T02:01:59;39.90;;;10.80;;
70337;SDS011;57757;53.198;19.646;2024-01-11T02:04:27;37.10;;;9.50;;
70337;SDS011;57757;53.198;19.646;2024-01-11T02:06:55;38.40;;;9.60;;
70337;SDS011;57757;53.198;19.646;2024-01-11T02:09:24;30.90;;;9.30;;
70337;SDS011;57757;53.198;19.646;2024-01-11T02:11:52;34.50;;;11.20;;
70337;SDS011;57757;53.198;19.646;2024-01-11T02:14:21;41.60;;;12.40;;
70337;SDS011;57757;53.198;19.646;2024-01-11T02:16:49;40.90;;;13.40;;
70337;SDS011;57757;53.198;19.646;2024-01-11T02:19:17;40.90;;;11.70;;
70337;SDS011;57757;53.198;19.646;2024-01-11T02:21:46;36.90;;;11.40;;
70337;SDS011;57757;53.198;19.646;2024-01-11T02:24:16;32.80;;;11.20;;
70337;SDS011;57757;53.198;19.646;2024-01-11T02:29:30;32.90;;;10.80;;
70337;SDS011;57757;53.198;19.646;2024-01-11T02:31:59;35.00;;;11.40;;
70337;SDS011;57757;53.198;19.646;2024-01-11T02:34:30;36.70;;;12.30;;
70337;SDS011;57757;53.198;19.646;2024-01-11T02:36:58;44.30;;;11.10;;
70337;SDS011;57757;53.198;19.646;2024-01-11T02:39:26;38.80;;;11.30;;
70337;SDS011;57757;53.198;19.646;2024-01-11T02:41:55;33.10;;;9.60;;
70337;SDS011;57757;53.198;19.646;2024-01-11T02:44:24;27.50;;;8.10;;
70337;SDS011;57757;53.198;19.646;2024-01-11T02:46:52;26.70;;;9.60;;
70337;SDS011;57757;53.198;19.646;2024-01-11T02:49:19;35.80;;;10.00;;
70337;SDS011;57757;53.198;19.646;2024-01-11T02:51:47;33.70;;;9.80;;
70337;SDS011;57757;53.198;19.646;2024-01-11T02:54:15;43.00;;;10.70;;
70337;SDS011;57757;53.198;19.646;2024-01-11T02:56:42;31.60;;;9.20;;
70337;SDS011;57757;53.198;19.646;2024-01-11T02:59:10;36.60;;;9.70;;
70337;SDS011;57757;53.198;19.646;2024-01-11T03:01:37;40.10;;;9.50;;
70337;SDS011;57757;53.198;19.646;2024-01-11T03:04:05;30.50;;;8.30;;
70337;SDS011;57757;53.198;19.646;2024-01-11T03:06:33;28.50;;;9.10;;
70337;SDS011;57757;53.198;19.646;2024-01-11T03:09:00;31.90;;;10.00;;
70337;SDS011;57757;53.198;19.646;2024-01-11T03:11:28;40.00;;;10.70;;
70337;SDS011;57757;53.198;19.646;2024-01-11T03:13:55;37.90;;;11.70;;
70337;SDS011;57757;53.198;19.646;2024-01-11T03:16:23;56.80;;;12.40;;
70337;SDS011;57757;53.198;19.646;2024-01-11T03:18:51;35.10;;;12.10;;
70337;SDS011;57757;53.198;19.646;2024-01-11T03:21:18;31.20;;;9.40;;
70337;SDS011;57757;53.198;19.646;2024-01-11T03:23:46;37.10;;;9.90;;
70337;SDS011;57757;53.198;19.646;2024-01-11T03:26:15;38.50;;;11.20;;
70337;SDS011;57757;53.198;19.646;2024-01-11T03:28:44;32.30;;;9.50;;
70337;SDS011;57757;53.198;19.646;2024-01-11T03:31:13;39.90;;;12.60;;
70337;SDS011;57757;53.198;19.646;2024-01-11T03:33:40;42.40;;;11.20;;
70337;SDS011;57757;53.198;19.646;2024-01-11T03:36:09;26.90;;;8.30;;
70337;SDS011;57757;53.198;19.646;2024-01-11T03:38:38;30.90;;;11.40;;
70337;SDS011;57757;53.198;19.646;2024-01-11T03:41:09;39.60;;;11.90;;
70337;SDS011;57757;53.198;19.646;2024-01-11T03:43:37;43.30;;;11.80;;
70337;SDS011;57757;53.198;19.646;2024-01-11T03:46:05;42.60;;;11.10;;
70337;SDS011;57757;53.198;19.646;2024-01-11T03:48:33;49.20;;;19.20;;
70337;SDS011;57757;53.198;19.646;2024-01-11T03:51:03;33.50;;;11.00;;
70337;SDS011;57757;53.198;19.646;2024-01-11T03:53:34;34.20;;;12.00;;
70337;SDS011;57757;53.198;19.646;2024-01-11T03:56:03;40.20;;;11.20;;
70337;SDS011;57757;53.198;19.646;2024-01-11T03:58:31;25.70;;;8.50;;
70337;SDS011;57757;53.198;19.646;2024-01-11T04:00:59;32.80;;;10.70;;
70337;SDS011;57757;53.198;19.646;2024-01-11T04:03:27;34.10;;;9.70;;
70337;SDS011;57757;53.198;19.646;2024-01-11T04:05:55;33.30;;;10.60;;
70337;SDS011;57757;53.198;19.646;2024-01-11T04:08:23;37.60;;;11.00;;
70337;SDS011;57757;53.198;19.646;2024-01-11T04:10:50;32.20;;;11.00;;
70337;SDS011;57757;53.198;19.646;2024-01-11T04:13:18;34.00;;;10.40;;
70337;SDS011;57757;53.198;19.646;2024-01-11T04:15:47;29.30;;;10.50;;
70337;SDS011;57757;53.198;19.646;2024-01-11T04:18:14;36.40;;;12.00;;
70337;SDS011;57757;53.198;19.646;2024-01-11T04:20:42;38.70;;;12.70;;
70337;SDS011;57757;53.198;19.646;2024-01-11T04:23:09;32.70;;;10.10;;
70337;SDS011;57757;53.198;19.646;2024-01-11T04:25:37;33.80;;;10.30;;
70337;SDS011;57757;53.198;19.646;2024-01-11T04:28:05;41.10;;;13.20;;
70337;SDS011;57757;53.198;19.646;2024-01-11T04:30:32;44.40;;;14.80;;
70337;SDS011;57757;53.198;19.646;2024-01-11T04:33:00;35.50;;;11.40;;
70337;SDS011;57757;53.198;19.646;2024-01-11T04:35:28;37.40;;;12.60;;
70337;SDS011;57757;53.198;19.646;2024-01-11T04:37:55;38.90;;;13.60;;
70337;SDS011;57757;53.198;19.646;2024-01-11T04:40:23;28.90;;;9.80;;
70337;SDS011;57757;53.198;19.646;2024-01-11T04:42:50;37.70;;;16.60;;
70337;SDS011;57757;53.198;19.646;2024-01-11T04:45:18;43.80;;;16.00;;
70337;SDS011;57757;53.198;19.646;2024-01-11T04:47:45;36.50;;;11.80;;
70337;SDS011;57757;53.198;19.646;2024-01-11T04:50:13;47.50;;;16.80;;
70337;SDS011;57757;53.198;19.646;2024-01-11T04:52:41;42.20;;;15.60;;
70337;SDS011;57757;53.198;19.646;2024-01-11T04:55:08;37.20;;;13.70;;
70337;SDS011;57757;53.198;19.646;2024-01-11T04:57:36;35.60;;;12.20;;
70337;SDS011;57757;53.198;19.646;2024-01-11T05:00:04;41.50;;;14.80;;
70337;SDS011;57757;53.198;19.646;2024-01-11T05:02:32;47.70;;;17.10;;
70337;SDS011;57757;53.198;19.646;2024-01-11T05:05:00;42.70;;;14.20;;
70337;SDS011;57757;53.198;19.646;2024-01-11T05:07:27;47.10;;;19.60;;
70337;SDS011;57757;53.198;19.646;2024-01-11T05:09:55;45.20;;;18.70;;
70337;SDS011;57757;53.198;19.646;2024-01-11T05:12:23;38.20;;;16.40;;
70337;SDS011;57757;53.198;19.646;2024-01-11T05:14:50;45.10;;;16.50;;
70337;SDS011;57757;53.198;19.646;2024-01-11T05:17:18;41.10;;;16.10;;
70337;SDS011;57757;53.198;19.646;2024-01-11T05:19:45;37.60;;;14.40;;
70337;SDS011;57757;53.198;19.646;2024-01-11T05:22:13;45.10;;;15.70;;
70337;SDS011;57757;53.198;19.646;2024-01-11T05:24:41;39.20;;;14.30;;
70337;SDS011;57757;53.198;19.646;2024-01-11T05:27:08;42.60;;;15.40;;
70337;SDS011;57757;53.198;19.646;2024-01-11T05:29:36;37.80;;;12.90;;
70337;SDS011;57757;53.198;19.646;2024-01-11T05:32:03;48.60;;;16.10;;
70337;SDS011;57757;53.198;19.646;2024-01-11T05:34:31;40.40;;;15.50;;
70337;SDS011;57757;53.198;19.646;2024-01-11T05:36:59;37.10;;;13.20;;
70337;SDS011;57757;53.198;19.646;2024-01-11T05:39:27;38.90;;;14.90;;
70337;SDS011;57757;53.198;19.646;2024-01-11T05:41:55;38.50;;;14.60;;
70337;SDS011;57757;53.198;19.646;2024-01-11T05:44:22;45.70;;;17.80;;
70337;SDS011;57757;53.198;19.646;2024-01-11T05:46:50;47.40;;;17.40;;
70337;SDS011;57757;53.198;19.646;2024-01-11T05:49:17;43.90;;;15.20;;
70337;SDS011;57757;53.198;19.646;2024-01-11T05:51:45;42.40;;;17.60;;
70337;SDS011;57757;53.198;19.646;2024-01-11T05:54:12;41.50;;;15.20;;
70337;SDS011;57757;53.198;19.646;2024-01-11T05:56:40;46.40;;;18.10;;
70337;SDS011;57757;53.198;19.646;2024-01-11T05:59:08;54.40;;;20.70;;
70337;SDS011;57757;53.198;19.646;2024-01-11T06:01:42;55.40;;;19.60;;
70337;SDS011;57757;53.198;19.646;2024-01-11T06:04:11;47.70;;;15.70;;
70337;SDS011;57757;53.198;19.646;2024-01-11T06:06:39;38.50;;;12.80;;
70337;SDS011;57757;53.198;19.646;2024-01-11T06:09:07;41.70;;;14.70;;
70337;SDS011;57757;53.198;19.646;2024-01-11T06:11:37;39.50;;;14.90;;
70337;SDS011;57757;53.198;19.646;2024-01-11T06:14:04;46.50;;;17.30;;
70337;SDS011;57757;53.198;19.646;2024-01-11T06:16:32;42.90;;;18.20;;
70337;SDS011;57757;53.198;19.646;2024-01-11T06:19:00;30.80;;;13.10;;
70337;SDS011;57757;53.198;19.646;2024-01-11T06:21:27;59.50;;;27.40;;
70337;SDS011;57757;53.198;19.646;2024-01-11T06:23:55;51.20;;;17.60;;
70337;SDS011;57757;53.198;19.646;2024-01-11T06:26:23;43.50;;;15.20;;
70337;SDS011;57757;53.198;19.646;2024-01-11T06:28:50;46.60;;;16.40;;
70337;SDS011;57757;53.198;19.646;2024-01-11T06:31:18;44.90;;;15.90;;
70337;SDS011;57757;53.198;19.646;2024-01-11T06:33:46;31.50;;;13.10;;
70337;SDS011;57757;53.198;19.646;2024-01-11T06:36:17;30.90;;;12.50;;
70337;SDS011;57757;53.198;19.646;2024-01-11T06:38:44;29.20;;;12.60;;
70337;SDS011;57757;53.198;19.646;2024-01-11T06:41:12;36.90;;;15.10;;
70337;SDS011;57757;53.198;19.646;2024-01-11T06:43:41;35.40;;;14.70;;
70337;SDS011;57757;53.198;19.646;2024-01-11T06:46:08;38.50;;;15.20;;
70337;SDS011;57757;53.198;19.646;2024-01-11T06:48:38;41.80;;;14.60;;
70337;SDS011;57757;53.198;19.646;2024-01-11T06:51:06;33.00;;;11.90;;
70337;SDS011;57757;53.198;19.646;2024-01-11T06:53:33;39.90;;;16.70;;
70337;SDS011;57757;53.198;19.646;2024-01-11T06:56:12;38.70;;;17.10;;
70337;SDS011;57757;53.198;19.646;2024-01-11T06:58:51;40.40;;;20.80;;
70337;SDS011;57757;53.198;19.646;2024-01-11T07:01:19;37.00;;;14.80;;
70337;SDS011;57757;53.198;19.646;2024-01-11T07:03:48;59.00;;;29.90;;
70337;SDS011;57757;53.198;19.646;2024-01-11T07:06:17;39.40;;;16.70;;
70337;SDS011;57757;53.198;19.646;2024-01-11T07:08:44;46.10;;;22.10;;
70337;SDS011;57757;53.198;19.646;2024-01-11T07:11:13;42.30;;;20.10;;
70337;SDS011;57757;53.198;19.646;2024-01-11T07:13:41;40.80;;;19.10;;
70337;SDS011;57757;53.198;19.646;2024-01-11T07:16:08;37.20;;;16.10;;
70337;SDS011;57757;53.198;19.646;2024-01-11T07:18:39;36.60;;;16.70;;
70337;SDS011;57757;53.198;19.646;2024-01-11T07:21:08;58.00;;;28.10;;
70337;SDS011;57757;53.198;19.646;2024-01-11T07:23:35;42.10;;;19.00;;
70337;SDS011;57757;53.198;19.646;2024-01-11T07:26:03;55.10;;;25.90;;
70337;SDS011;57757;53.198;19.646;2024-01-11T07:28:31;63.90;;;29.20;;
70337;SDS011;57757;53.198;19.646;2024-01-11T07:30:59;47.80;;;22.20;;
70337;SDS011;57757;53.198;19.646;2024-01-11T07:33:27;30.60;;;13.50;;
70337;SDS011;57757;53.198;19.646;2024-01-11T07:35:55;28.30;;;13.00;;
70337;SDS011;57757;53.198;19.646;2024-01-11T07:38:23;36.80;;;15.20;;
70337;SDS011;57757;53.198;19.646;2024-01-11T07:40:51;34.30;;;16.10;;
70337;SDS011;57757;53.198;19.646;2024-01-11T07:43:20;33.80;;;13.10;;
70337;SDS011;57757;53.198;19.646;2024-01-11T07:45:51;75.60;;;27.30;;
70337;SDS011;57757;53.198;19.646;2024-01-11T07:48:19;65.50;;;24.60;;
70337;SDS011;57757;53.198;19.646;2024-01-11T07:50:47;78.90;;;27.00;;
70337;SDS011;57757;53.198;19.646;2024-01-11T07:53:15;120.10;;;41.60;;
70337;SDS011;57757;53.198;19.646;2024-01-11T07:55:42;101.00;;;37.90;;
70337;SDS011;57757;53.198;19.646;2024-01-11T07:58:10;64.50;;;24.20;;
70337;SDS011;57757;53.198;19.646;2024-01-11T08:00:40;43.10;;;19.00;;
70337;SDS011;57757;53.198;19.646;2024-01-11T08:03:08;35.60;;;17.40;;
70337;SDS011;57757;53.198;19.646;2024-01-11T08:05:37;31.90;;;14.80;;
70337;SDS011;57757;53.198;19.646;2024-01-11T08:08:04;37.00;;;18.70;;
70337;SDS011;57757;53.198;19.646;2024-01-11T08:10:32;44.10;;;19.90;;
70337;SDS011;57757;53.198;19.646;2024-01-11T08:13:01;42.30;;;21.90;;
70337;SDS011;57757;53.198;19.646;2024-01-11T08:15:28;34.90;;;15.00;;
70337;SDS011;57757;53.198;19.646;2024-01-11T08:17:56;26.40;;;12.40;;
70337;SDS011;57757;53.198;19.646;2024-01-11T08:20:24;42.20;;;17.30;;
70337;SDS011;57757;53.198;19.646;2024-01-11T08:22:52;48.40;;;22.40;;
70337;SDS011;57757;53.198;19.646;2024-01-11T08:25:19;78.40;;;36.30;;
70337;SDS011;57757;53.198;19.646;2024-01-11T08:27:48;56.70;;;24.70;;
70337;SDS011;57757;53.198;19.646;2024-01-11T08:30:19;49.50;;;23.90;;
70337;SDS011;57757;53.198;19.646;2024-01-11T08:32:47;53.20;;;23.80;;
70337;SDS011;57757;53.198;19.646;2024-01-11T08:35:16;50.40;;;22.70;;
70337;SDS011;57757;53.198;19.646;2024-01-11T08:37:44;40.30;;;19.40;;
70337;SDS011;57757;53.198;19.646;2024-01-11T08:40:14;35.50;;;15.90;;
70337;SDS011;57757;53.198;19.646;2024-01-11T08:42:43;30.30;;;13.50;;
70337;SDS011;57757;53.198;19.646;2024-01-11T08:45:10;40.50;;;17.60;;
70337;SDS011;57757;53.198;19.646;2024-01-11T08:47:47;43.40;;;18.40;;
70337;SDS011;57757;53.198;19.646;2024-01-11T08:50:16;36.80;;;16.70;;
70337;SDS011;57757;53.198;19.646;2024-01-11T08:52:50;33.90;;;14.90;;
70337;SDS011;57757;53.198;19.646;2024-01-11T08:55:17;35.30;;;16.10;;
70337;SDS011;57757;53.198;19.646;2024-01-11T08:57:45;38.60;;;16.10;;
70337;SDS011;57757;53.198;19.646;2024-01-11T09:00:12;42.50;;;20.40;;
70337;SDS011;57757;53.198;19.646;2024-01-11T09:02:44;40.30;;;16.80;;
70337;SDS011;57757;53.198;19.646;2024-01-11T09:05:16;53.80;;;19.90;;
70337;SDS011;57757;53.198;19.646;2024-01-11T09:07:44;45.70;;;20.10;;
70337;SDS011;57757;53.198;19.646;2024-01-11T09:10:12;41.80;;;20.20;;
70337;SDS011;57757;53.198;19.646;2024-01-11T09:12:40;46.50;;;20.70;;
70337;SDS011;57757;53.198;19.646;2024-01-11T09:15:08;38.60;;;18.40;;
70337;SDS011;57757;53.198;19.646;2024-01-11T09:17:35;37.80;;;20.10;;
70337;SDS011;57757;53.198;19.646;2024-01-11T09:20:04;41.00;;;20.70;;
70337;SDS011;57757;53.198;19.646;2024-01-11T09:22:32;40.70;;;19.80;;
70337;SDS011;57757;53.198;19.646;2024-01-11T09:25:00;40.50;;;20.50;;
70337;SDS011;57757;53.198;19.646;2024-01-11T09:27:28;31.10;;;16.60;;
70337;SDS011;57757;53.198;19.646;2024-01-11T09:29:55;32.80;;;15.90;;
70337;SDS011;57757;53.198;19.646;2024-01-11T09:32:23;31.00;;;14.30;;
70337;SDS011;57757;53.198;19.646;2024-01-11T09:34:52;46.30;;;24.50;;
70337;SDS011;57757;53.198;19.646;2024-01-11T09:37:20;28.70;;;13.40;;
70337;SDS011;57757;53.198;19.646;2024-01-11T09:39:47;30.80;;;15.30;;
70337;SDS011;57757;53.198;19.646;2024-01-11T09:42:15;28.00;;;12.90;;
70337;SDS011;57757;53.198;19.646;2024-01-11T09:44:43;28.70;;;13.50;;
70337;SDS011;57757;53.198;19.646;2024-01-11T09:47:11;23.10;;;11.00;;
70337;SDS011;57757;53.198;19.646;2024-01-11T09:49:44;27.60;;;12.90;;
70337;SDS011;57757;53.198;19.646;2024-01-11T09:52:13;19.10;;;10.00;;
70337;SDS011;57757;53.198;19.646;2024-01-11T09:54:43;19.90;;;9.50;;
70337;SDS011;57757;53.198;19.646;2024-01-11T09:57:10;26.60;;;12.10;;
70337;SDS011;57757;53.198;19.646;2024-01-11T09:59:39;25.50;;;11.90;;
70337;SDS011;57757;53.198;19.646;2024-01-11T10:02:09;28.80;;;12.50;;
70337;SDS011;57757;53.198;19.646;2024-01-11T10:04:40;26.80;;;12.70;;
70337;SDS011;57757;53.198;19.646;2024-01-11T10:07:09;21.50;;;8.80;;
70337;SDS011;57757;53.198;19.646;2024-01-11T10:09:37;24.70;;;11.80;;
70337;SDS011;57757;53.198;19.646;2024-01-11T10:12:05;23.50;;;9.40;;
70337;SDS011;57757;53.198;19.646;2024-01-11T10:14:33;78.70;;;29.50;;
70337;SDS011;57757;53.198;19.646;2024-01-11T10:17:00;217.00;;;69.80;;
70337;SDS011;57757;53.198;19.646;2024-01-11T10:19:28;71.20;;;27.60;;
70337;SDS011;57757;53.198;19.646;2024-01-11T10:21:57;90.60;;;44.60;;
70337;SDS011;57757;53.198;19.646;2024-01-11T10:24:26;30.80;;;13.60;;
70337;SDS011;57757;53.198;19.646;2024-01-11T10:26:57;28.70;;;15.50;;
70337;SDS011;57757;53.198;19.646;2024-01-11T10:29:31;63.70;;;31.70;;
70337;SDS011;57757;53.198;19.646;2024-01-11T10:32:00;61.20;;;24.60;;
70337;SDS011;57757;53.198;19.646;2024-01-11T10:34:28;67.70;;;31.30;;
70337;SDS011;57757;53.198;19.646;2024-01-11T10:36:55;63.30;;;28.10;;
70337;SDS011;57757;53.198;19.646;2024-01-11T10:39:25;63.80;;;28.60;;
70337;SDS011;57757;53.198;19.646;2024-01-11T10:41:58;51.50;;;23.20;;
70337;SDS011;57757;53.198;19.646;2024-01-11T10:44:35;71.50;;;30.80;;
70337;SDS011;57757;53.198;19.646;2024-01-11T10:47:04;32.40;;;13.50;;
70337;SDS011;57757;53.198;19.646;2024-01-11T10:49:35;38.90;;;17.80;;
70337;SDS011;57757;53.198;19.646;2024-01-11T10:52:07;34.40;;;16.00;;
70337;SDS011;57757;53.198;19.646;2024-01-11T10:54:39;41.50;;;15.50;;
70337;SDS011;57757;53.198;19.646;2024-01-11T10:57:08;53.90;;;18.10;;
70337;SDS011;57757;53.198;19.646;2024-01-11T10:59:39;32.70;;;14.70;;
70337;SDS011;57757;53.198;19.646;2024-01-11T11:02:11;51.70;;;20.60;;
70337;SDS011;57757;53.198;19.646;2024-01-11T11:04:42;44.50;;;17.90;;
70337;SDS011;57757;53.198;19.646;2024-01-11T11:07:11;43.70;;;17.70;;
70337;SDS011;57757;53.198;19.646;2024-01-11T11:09:42;64.40;;;32.20;;
70337;SDS011;57757;53.198;19.646;2024-01-11T11:12:12;43.80;;;19.70;;
70337;SDS011;57757;53.198;19.646;2024-01-11T11:14:44;54.00;;;29.60;;
70337;SDS011;57757;53.198;19.646;2024-01-11T11:17:14;40.00;;;23.00;;
70337;SDS011;57757;53.198;19.646;2024-01-11T11:19:42;57.40;;;24.60;;
70337;SDS011;57757;53.198;19.646;2024-01-11T11:22:12;66.10;;;25.70;;
70337;SDS011;57757;53.198;19.646;2024-01-11T11:24:40;90.30;;;36.70;;
70337;SDS011;57757;53.198;19.646;2024-01-11T11:27:09;63.20;;;26.80;;
70337;SDS011;57757;53.198;19.646;2024-01-11T11:29:41;63.10;;;29.40;;
70337;SDS011;57757;53.198;19.646;2024-01-11T11:32:15;44.70;;;19.70;;
70337;SDS011;57757;53.198;19.646;2024-01-11T11:34:44;62.50;;;30.90;;
70337;SDS011;57757;53.198;19.646;2024-01-11T11:37:21;100.50;;;48.50;;
70337;SDS011;57757;53.198;19.646;2024-01-11T11:39:51;48.20;;;21.10;;
70337;SDS011;57757;53.198;19.646;2024-01-11T11:42:23;47.60;;;19.80;;
70337;SDS011;57757;53.198;19.646;2024-01-11T11:44:53;38.40;;;16.00;;
70337;SDS011;57757;53.198;19.646;2024-01-11T11:47:22;31.50;;;13.60;;
70337;SDS011;57757;53.198;19.646;2024-01-11T11:50:12;38.70;;;15.30;;
70337;SDS011;57757;53.198;19.646;2024-01-11T11:52:41;24.60;;;10.50;;
70337;SDS011;57757;53.198;19.646;2024-01-11T11:55:11;29.00;;;12.50;;
70337;SDS011;57757;53.198;19.646;2024-01-11T11:57:40;24.70;;;11.40;;
70337;SDS011;57757;53.198;19.646;2024-01-11T12:00:11;24.90;;;11.60;;
70337;SDS011;57757;53.198;19.646;2024-01-11T12:02:40;33.90;;;13.70;;
70337;SDS011;57757;53.198;19.646;2024-01-11T12:05:09;22.60;;;10.50;;
70337;SDS011;57757;53.198;19.646;2024-01-11T12:07:37;21.10;;;9.30;;
70337;SDS011;57757;53.198;19.646;2024-01-11T12:10:05;28.90;;;12.50;;
70337;SDS011;57757;53.198;19.646;2024-01-11T12:12:34;28.40;;;12.20;;
70337;SDS011;57757;53.198;19.646;2024-01-11T12:15:04;27.00;;;12.50;;
70337;SDS011;57757;53.198;19.646;2024-01-11T12:17:32;29.50;;;13.00;;
70337;SDS011;57757;53.198;19.646;2024-01-11T12:20:00;37.10;;;17.00;;
70337;SDS011;57757;53.198;19.646;2024-01-11T12:22:28;33.60;;;14.00;;
70337;SDS011;57757;53.198;19.646;2024-01-11T12:24:55;35.20;;;19.30;;
70337;SDS011;57757;53.198;19.646;2024-01-11T12:27:23;27.80;;;13.60;;
70337;SDS011;57757;53.198;19.646;2024-01-11T12:29:52;38.40;;;18.30;;
70337;SDS011;57757;53.198;19.646;2024-01-11T12:32:28;31.80;;;15.20;;
70337;SDS011;57757;53.198;19.646;2024-01-11T12:34:57;34.10;;;17.70;;
70337;SDS011;57757;53.198;19.646;2024-01-11T12:37:25;41.60;;;23.40;;
70337;SDS011;57757;53.198;19.646;2024-01-11T12:39:57;28.40;;;14.10;;
70337;SDS011;57757;53.198;19.646;2024-01-11T12:42:29;25.20;;;12.10;;
70337;SDS011;57757;53.198;19.646;2024-01-11T12:44:57;26.80;;;12.70;;
70337;SDS011;57757;53.198;19.646;2024-01-11T12:47:26;27.50;;;11.70;;
70337;SDS011;57757;53.198;19.646;2024-01-11T12:49:54;23.70;;;12.20;;
70337;SDS011;57757;53.198;19.646;2024-01-11T12:52:22;23.10;;;11.30;;
70337;SDS011;57757;53.198;19.646;2024-01-11T12:54:52;28.40;;;13.10;;
70337;SDS011;57757;53.198;19.646;2024-01-11T12:57:20;26.40;;;12.80;;
70337;SDS011;57757;53.198;19.646;2024-01-11T12:59:48;32.20;;;15.30;;
70337;SDS011;57757;53.198;19.646;2024-01-11T13:02:16;40.00;;;19.30;;
70337;SDS011;57757;53.198;19.646;2024-01-11T13:04:46;22.50;;;12.30;;
70337;SDS011;57757;53.198;19.646;2024-01-11T13:07:13;27.40;;;13.10;;
70337;SDS011;57757;53.198;19.646;2024-01-11T13:09:43;24.70;;;12.30;;
70337;SDS011;57757;53.198;19.646;2024-01-11T13:12:10;30.80;;;15.20;;
70337;SDS011;57757;53.198;19.646;2024-01-11T13:14:38;25.50;;;12.00;;
70337;SDS011;57757;53.198;19.646;2024-01-11T13:17:07;32.80;;;18.00;;
70337;SDS011;57757;53.198;19.646;2024-01-11T13:19:35;31.70;;;19.10;;
70337;SDS011;57757;53.198;19.646;2024-01-11T13:22:03;35.50;;;19.50;;
70337;SDS011;57757;53.198;19.646;2024-01-11T13:24:31;61.60;;;30.60;;
70337;SDS011;57757;53.198;19.646;2024-01-11T13:26:59;50.10;;;23.90;;
70337;SDS011;57757;53.198;19.646;2024-01-11T13:29:26;29.40;;;13.80;;
70337;SDS011;57757;53.198;19.646;2024-01-11T13:31:54;43.60;;;21.30;;
70337;SDS011;57757;53.198;19.646;2024-01-11T13:34:22;43.80;;;20.70;;
70337;SDS011;57757;53.198;19.646;2024-01-11T13:36:50;28.50;;;13.50;;
70337;SDS011;57757;53.198;19.646;2024-01-11T13:39:18;27.00;;;11.80;;
70337;SDS011;57757;53.198;19.646;2024-01-11T13:41:47;34.50;;;14.40;;
70337;SDS011;57757;53.198;19.646;2024-01-11T13:44:15;31.30;;;14.70;;
70337;SDS011;57757;53.198;19.646;2024-01-11T13:46:43;28.00;;;12.60;;
70337;SDS011;57757;53.198;19.646;2024-01-11T13:49:11;23.80;;;9.70;;
70337;SDS011;57757;53.198;19.646;2024-01-11T13:51:39;20.30;;;10.10;;
70337;SDS011;57757;53.198;19.646;2024-01-11T13:54:20;35.10;;;12.30;;
70337;SDS011;57757;53.198;19.646;2024-01-11T13:56:50;109.40;;;28.10;;
70337;SDS011;57757;53.198;19.646;2024-01-11T13:59:19;137.40;;;31.90;;
70337;SDS011;57757;53.198;19.646;2024-01-11T14:01:47;95.40;;;24.60;;
70337;SDS011;57757;53.198;19.646;2024-01-11T14:04:15;69.60;;;21.70;;
70337;SDS011;57757;53.198;19.646;2024-01-11T14:06:43;39.10;;;12.70;;
70337;SDS011;57757;53.198;19.646;2024-01-11T14:09:10;46.90;;;14.10;;
70337;SDS011;57757;53.198;19.646;2024-01-11T14:11:38;43.90;;;13.30;;
70337;SDS011;57757;53.198;19.646;2024-01-11T14:14:06;44.10;;;15.10;;
70337;SDS011;57757;53.198;19.646;2024-01-11T14:16:34;30.20;;;11.20;;
70337;SDS011;57757;53.198;19.646;2024-01-11T14:19:01;39.70;;;13.80;;
70337;SDS011;57757;53.198;19.646;2024-01-11T14:21:29;38.90;;;12.90;;